sensor_id;sensor_type;location;lat;lon;timestamp;pressure;altitude;pressure_sealevel;temperature;humidity
17505;BME280;8870;50.950;11.762;2023-08-17T00:00:08;98703.72;;;21.11;100.00
17505;BME280;8870;50.950;11.762;2023-08-17T00:11:02;98692.38;;;21.07;100.00
17505;BME280;8870;50.950;11.762;2023-08-17T00:16:21;98679.72;;;21.06;100.00
17505;BME280;8870;50.950;11.762;2023-08-17T00:21:54;98679.72;;;21.06;100.00
17505;BME280;8870;50.950;11.762;2023-08-17T00:27:12;98658.66;;;21.06;100.00
17505;BME280;8870;50.950;11.762;2023-08-17T00:32:44;98666.66;;;21.08;100.00
17505;BME280;8870;50.950;11.762;2023-08-17T00:38:05;98668.94;;;21.11;100.00
17505;BME280;8870;50.950;11.762;2023-08-17T00:43:36;98704.75;;;20.84;100.00
17505;BME280;8870;50.950;11.762;2023-08-17T00:48:55;98806.47;;;20.36;100.00
17505;BME280;8870;50.950;11.762;2023-08-17T00:54:31;98810.66;;;20.38;100.00
17505;BME280;8870;50.950;11.762;2023-08-17T00:59:50;98845.59;;;20.36;100.00
17505;BME280;8870;50.950;11.762;2023-08-17T01:05:21;98806.53;;;20.09;100.00
17505;BME280;8870;50.950;11.762;2023-08-17T01:10:49;98775.41;;;19.83;100.00
17505;BME280;8870;50.950;11.762;2023-08-17T01:16:26;98754.19;;;19.65;100.00
17505;BME280;8870;50.950;11.762;2023-08-17T01:21:50;98744.38;;;19.44;100.00
17505;BME280;8870;50.950;11.762;2023-08-17T01:27:24;98741.22;;;19.27;100.00
17505;BME280;8870;50.950;11.762;2023-08-17T01:32:48;98750.44;;;19.19;100.00
17505;BME280;8870;50.950;11.762;2023-08-17T01:38:22;98766.41;;;19.08;100.00
17505;BME280;8870;50.950;11.762;2023-08-17T01:43:58;98781.50;;;18.98;100.00
17505;BME280;8870;50.950;11.762;2023-08-17T01:49:17;98800.13;;;18.81;100.00
17505;BME280;8870;50.950;11.762;2023-08-17T01:54:47;98794.66;;;18.81;100.00
17505;BME280;8870;50.950;11.762;2023-08-17T02:00:10;98785.00;;;18.71;100.00
17505;BME280;8870;50.950;11.762;2023-08-17T02:05:44;98758.09;;;18.68;100.00
17505;BME280;8870;50.950;11.762;2023-08-17T02:11:03;98824.78;;;18.52;100.00
17505;BME280;8870;50.950;11.762;2023-08-17T02:16:41;98881.84;;;18.40;100.00
17505;BME280;8870;50.950;11.762;2023-08-17T02:22:02;98945.16;;;18.36;100.00
17505;BME280;8870;50.950;11.762;2023-08-17T02:27:35;98946.00;;;18.36;100.00
17505;BME280;8870;50.950;11.762;2023-08-17T02:32:56;98934.66;;;18.32;100.00
17505;BME280;8870;50.950;11.762;2023-08-17T02:38:29;98959.81;;;18.28;100.00
17505;BME280;8870;50.950;11.762;2023-08-17T02:44:03;99044.88;;;18.16;100.00
17505;BME280;8870;50.950;11.762;2023-08-17T02:49:24;99117.16;;;17.91;100.00
17505;BME280;8870;50.950;11.762;2023-08-17T02:54:55;99101.16;;;17.87;100.00
17505;BME280;8870;50.950;11.762;2023-08-17T03:00:14;99110.38;;;17.86;100.00
17505;BME280;8870;50.950;11.762;2023-08-17T03:05:49;99136.03;;;17.92;100.00
17505;BME280;8870;50.950;11.762;2023-08-17T03:11:08;99118.19;;;17.90;100.00
17505;BME280;8870;50.950;11.762;2023-08-17T03:16:39;99115.09;;;17.93;100.00
17505;BME280;8870;50.950;11.762;2023-08-17T03:22:00;99095.34;;;17.91;100.00
17505;BME280;8870;50.950;11.762;2023-08-17T03:27:32;99090.91;;;17.90;100.00
17505;BME280;8870;50.950;11.762;2023-08-17T03:32:50;99111.69;;;17.91;100.00
17505;BME280;8870;50.950;11.762;2023-08-17T03:38:25;99068.06;;;17.91;100.00
17505;BME280;8870;50.950;11.762;2023-08-17T03:43:44;99044.97;;;17.86;100.00
17505;BME280;8870;50.950;11.762;2023-08-17T03:49:14;99071.19;;;17.87;100.00
17505;BME280;8870;50.950;11.762;2023-08-17T03:54:35;99062.56;;;17.84;100.00
17505;BME280;8870;50.950;11.762;2023-08-17T04:00:08;99057.47;;;17.81;100.00
17505;BME280;8870;50.950;11.762;2023-08-17T04:05:31;99080.16;;;17.81;100.00
17505;BME280;8870;50.950;11.762;2023-08-17T04:11:05;99091.69;;;17.83;100.00
17505;BME280;8870;50.950;11.762;2023-08-17T04:16:25;99089.81;;;17.84;100.00
17505;BME280;8870;50.950;11.762;2023-08-17T04:21:57;99074.28;;;17.84;100.00
17505;BME280;8870;50.950;11.762;2023-08-17T04:27:18;99033.97;;;17.80;100.00
17505;BME280;8870;50.950;11.762;2023-08-17T04:32:49;99011.72;;;17.76;100.00
17505;BME280;8870;50.950;11.762;2023-08-17T04:38:09;99004.13;;;17.71;100.00
17505;BME280;8870;50.950;11.762;2023-08-17T04:43:42;98980.84;;;17.69;100.00
17505;BME280;8870;50.950;11.762;2023-08-17T04:49:02;99011.84;;;17.68;100.00
17505;BME280;8870;50.950;11.762;2023-08-17T04:54:33;98989.03;;;17.69;100.00
17505;BME280;8870;50.950;11.762;2023-08-17T05:00:10;99019.00;;;17.69;100.00
17505;BME280;8870;50.950;11.762;2023-08-17T05:05:29;99018.59;;;17.72;100.00
17505;BME280;8870;50.950;11.762;2023-08-17T05:11:00;99018.59;;;17.72;100.00
17505;BME280;8870;50.950;11.762;2023-08-17T05:16:22;99040.00;;;17.75;100.00
17505;BME280;8870;50.950;11.762;2023-08-17T05:21:52;99061.44;;;17.78;100.00
17505;BME280;8870;50.950;11.762;2023-08-17T05:27:11;99064.81;;;17.80;100.00
17505;BME280;8870;50.950;11.762;2023-08-17T05:32:44;99065.72;;;17.87;100.00
17505;BME280;8870;50.950;11.762;2023-08-17T05:38:03;99095.50;;;17.89;100.00
17505;BME280;8870;50.950;11.762;2023-08-17T05:43:35;99051.31;;;17.94;100.00
17505;BME280;8870;50.950;11.762;2023-08-17T05:48:55;99012.31;;;17.93;100.00
17505;BME280;8870;50.950;11.762;2023-08-17T05:54:27;99049.25;;;17.96;100.00
17505;BME280;8870;50.950;11.762;2023-08-17T05:59:45;99070.53;;;17.85;100.00
17505;BME280;8870;50.950;11.762;2023-08-17T06:05:23;99072.00;;;17.88;100.00
17505;BME280;8870;50.950;11.762;2023-08-17T06:10:44;99051.72;;;17.91;100.00
17505;BME280;8870;50.950;11.762;2023-08-17T06:16:16;99043.78;;;17.96;100.00
17505;BME280;8870;50.950;11.762;2023-08-17T06:21:36;99046.81;;;18.01;100.00
17505;BME280;8870;50.950;11.762;2023-08-17T06:27:09;99034.28;;;18.07;100.00
17505;BME280;8870;50.950;11.762;2023-08-17T06:32:27;99049.47;;;18.16;100.00
17505;BME280;8870;50.950;11.762;2023-08-17T06:38:00;99068.31;;;18.32;100.00
17505;BME280;8870;50.950;11.762;2023-08-17T06:43:19;99082.31;;;18.51;100.00
17505;BME280;8870;50.950;11.762;2023-08-17T06:48:50;99091.13;;;18.75;100.00
17505;BME280;8870;50.950;11.762;2023-08-17T06:54:10;99090.84;;;18.91;100.00
17505;BME280;8870;50.950;11.762;2023-08-17T06:59:42;99086.75;;;19.09;100.00
17505;BME280;8870;50.950;11.762;2023-08-17T07:05:01;99083.47;;;19.20;100.00
17505;BME280;8870;50.950;11.762;2023-08-17T07:10:38;99077.88;;;19.35;100.00
17505;BME280;8870;50.950;11.762;2023-08-17T07:15:48;99081.50;;;19.43;100.00
17505;BME280;8870;50.950;11.762;2023-08-17T07:21:19;99075.03;;;19.50;100.00
17505;BME280;8870;50.950;11.762;2023-08-17T07:26:39;99077.78;;;19.57;100.00
17505;BME280;8870;50.950;11.762;2023-08-17T07:32:11;99085.78;;;19.65;100.00
17505;BME280;8870;50.950;11.762;2023-08-17T07:37:36;99090.28;;;19.80;100.00
17505;BME280;8870;50.950;11.762;2023-08-17T07:43:24;99103.19;;;19.99;100.00
17505;BME280;8870;50.950;11.762;2023-08-17T07:48:43;99106.63;;;20.22;100.00
17505;BME280;8870;50.950;11.762;2023-08-17T07:54:14;99106.44;;;20.43;100.00
17505;BME280;8870;50.950;11.762;2023-08-17T07:59:34;99114.88;;;20.69;100.00
17505;BME280;8870;50.950;11.762;2023-08-17T08:05:06;99086.03;;;20.93;100.00
17505;BME280;8870;50.950;11.762;2023-08-17T08:10:25;99043.41;;;21.17;100.00
17505;BME280;8870;50.950;11.762;2023-08-17T08:15:58;98981.78;;;21.33;100.00
17505;BME280;8870;50.950;11.762;2023-08-17T08:21:17;98923.09;;;21.48;100.00
17505;BME280;8870;50.950;11.762;2023-08-17T08:26:49;98893.53;;;21.57;100.00
17505;BME280;8870;50.950;11.762;2023-08-17T08:32:10;98889.66;;;21.71;100.00
17505;BME280;8870;50.950;11.762;2023-08-17T08:37:44;98880.25;;;21.85;100.00
17505;BME280;8870;50.950;11.762;2023-08-17T08:43:02;98859.25;;;21.98;100.00
17505;BME280;8870;50.950;11.762;2023-08-17T08:48:38;98819.50;;;22.07;100.00
17505;BME280;8870;50.950;11.762;2023-08-17T08:54:01;98797.19;;;22.22;100.00
17505;BME280;8870;50.950;11.762;2023-08-17T08:59:47;98790.31;;;22.31;100.00
17505;BME280;8870;50.950;11.762;2023-08-17T09:05:28;98762.50;;;22.46;100.00
17505;BME280;8870;50.950;11.762;2023-08-17T09:11:04;98765.28;;;22.58;100.00
17505;BME280;8870;50.950;11.762;2023-08-17T09:16:35;98746.97;;;22.71;100.00
17505;BME280;8870;50.950;11.762;2023-08-17T09:21:56;98750.38;;;22.85;100.00
17505;BME280;8870;50.950;11.762;2023-08-17T09:27:27;98740.03;;;22.99;100.00
17505;BME280;8870;50.950;11.762;2023-08-17T09:32:47;98719.03;;;23.16;100.00
17505;BME280;8870;50.950;11.762;2023-08-17T09:38:21;98713.59;;;23.28;100.00
17505;BME280;8870;50.950;11.762;2023-08-17T09:43:41;98714.06;;;23.49;100.00
17505;BME280;8870;50.950;11.762;2023-08-17T09:49:12;98714.31;;;23.59;100.00
17505;BME280;8870;50.950;11.762;2023-08-17T09:54:33;98690.50;;;23.77;100.00
17505;BME280;8870;50.950;11.762;2023-08-17T10:00:06;98684.66;;;23.97;100.00
17505;BME280;8870;50.950;11.762;2023-08-17T10:05:25;98670.38;;;24.12;100.00
17505;BME280;8870;50.950;11.762;2023-08-17T10:11:02;98655.03;;;24.16;100.00
17505;BME280;8870;50.950;11.762;2023-08-17T10:16:23;98645.38;;;24.30;100.00
17505;BME280;8870;50.950;11.762;2023-08-17T10:22:02;98638.06;;;24.36;100.00
17505;BME280;8870;50.950;11.762;2023-08-17T10:27:29;98613.22;;;24.48;100.00
17505;BME280;8870;50.950;11.762;2023-08-17T10:33:01;98606.22;;;24.57;100.00
17505;BME280;8870;50.950;11.762;2023-08-17T10:38:20;98604.00;;;24.71;100.00
17505;BME280;8870;50.950;11.762;2023-08-17T10:43:59;98606.94;;;24.82;100.00
17505;BME280;8870;50.950;11.762;2023-08-17T10:49:26;98601.44;;;24.99;100.00
17505;BME280;8870;50.950;11.762;2023-08-17T10:54:59;98583.72;;;25.12;100.00
17505;BME280;8870;50.950;11.762;2023-08-17T11:00:23;98595.03;;;25.32;100.00
17505;BME280;8870;50.950;11.762;2023-08-17T11:05:56;98580.16;;;25.50;100.00
17505;BME280;8870;50.950;11.762;2023-08-17T11:11:15;98571.69;;;25.79;100.00
17505;BME280;8870;50.950;11.762;2023-08-17T11:16:49;98572.69;;;25.95;100.00
17505;BME280;8870;50.950;11.762;2023-08-17T11:22:07;98569.66;;;26.19;100.00
17505;BME280;8870;50.950;11.762;2023-08-17T11:27:40;98542.38;;;26.23;100.00
17505;BME280;8870;50.950;11.762;2023-08-17T11:33:00;98555.47;;;26.38;100.00
17505;BME280;8870;50.950;11.762;2023-08-17T11:38:32;98551.19;;;26.52;100.00
17505;BME280;8870;50.950;11.762;2023-08-17T11:43:52;98536.41;;;26.69;100.00
17505;BME280;8870;50.950;11.762;2023-08-17T11:49:25;98530.72;;;26.81;100.00
17505;BME280;8870;50.950;11.762;2023-08-17T11:54:46;98533.81;;;26.89;100.00
17505;BME280;8870;50.950;11.762;2023-08-17T12:00:18;98525.56;;;26.95;100.00
17505;BME280;8870;50.950;11.762;2023-08-17T12:05:40;98513.16;;;26.97;100.00
17505;BME280;8870;50.950;11.762;2023-08-17T12:11:11;98509.78;;;26.90;100.00
17505;BME280;8870;50.950;11.762;2023-08-17T12:16:29;98508.47;;;27.03;100.00
17505;BME280;8870;50.950;11.762;2023-08-17T12:22:04;98507.69;;;27.07;100.00
17505;BME280;8870;50.950;11.762;2023-08-17T12:27:23;98513.44;;;27.01;100.00
17505;BME280;8870;50.950;11.762;2023-08-17T12:32:54;98502.72;;;27.15;100.00
17505;BME280;8870;50.950;11.762;2023-08-17T12:38:15;98503.88;;;27.24;100.00
17505;BME280;8870;50.950;11.762;2023-08-17T12:43:46;98489.50;;;27.27;100.00
17505;BME280;8870;50.950;11.762;2023-08-17T12:49:04;98482.41;;;27.47;100.00
17505;BME280;8870;50.950;11.762;2023-08-17T12:54:37;98483.28;;;27.47;100.00
17505;BME280;8870;50.950;11.762;2023-08-17T13:00:08;98489.28;;;27.34;100.00
17505;BME280;8870;50.950;11.762;2023-08-17T13:05:39;98485.03;;;27.11;100.00
17505;BME280;8870;50.950;11.762;2023-08-17T13:11:06;98490.97;;;26.87;100.00
17505;BME280;8870;50.950;11.762;2023-08-17T13:16:38;98492.53;;;26.77;100.00
17505;BME280;8870;50.950;11.762;2023-08-17T13:21:56;98478.00;;;26.92;100.00
17505;BME280;8870;50.950;11.762;2023-08-17T13:27:30;98460.72;;;27.18;100.00
17505;BME280;8870;50.950;11.762;2023-08-17T13:32:48;98454.94;;;27.25;100.00
17505;BME280;8870;50.950;11.762;2023-08-17T13:38:19;98473.19;;;27.26;100.00
17505;BME280;8870;50.950;11.762;2023-08-17T13:43:40;98472.53;;;27.03;100.00
17505;BME280;8870;50.950;11.762;2023-08-17T13:49:14;98481.25;;;26.84;100.00
17505;BME280;8870;50.950;11.762;2023-08-17T13:54:32;98455.81;;;26.82;100.00
17505;BME280;8870;50.950;11.762;2023-08-17T14:00:07;98459.28;;;26.67;100.00
17505;BME280;8870;50.950;11.762;2023-08-17T14:05:26;98464.97;;;26.50;100.00
17505;BME280;8870;50.950;11.762;2023-08-17T14:10:57;98483.38;;;26.34;100.00
17505;BME280;8870;50.950;11.762;2023-08-17T14:16:32;98482.69;;;26.17;100.00
17505;BME280;8870;50.950;11.762;2023-08-17T14:21:50;98502.34;;;25.98;100.00
17505;BME280;8870;50.950;11.762;2023-08-17T14:27:23;98493.38;;;25.85;100.00
17505;BME280;8870;50.950;11.762;2023-08-17T14:32:44;98515.22;;;25.65;100.00
17505;BME280;8870;50.950;11.762;2023-08-17T14:38:16;98507.06;;;25.53;100.00
17505;BME280;8870;50.950;11.762;2023-08-17T14:43:39;98496.06;;;25.36;100.00
17505;BME280;8870;50.950;11.762;2023-08-17T14:49:17;98499.78;;;25.24;100.00
17505;BME280;8870;50.950;11.762;2023-08-17T14:54:36;98479.28;;;25.15;100.00
17505;BME280;8870;50.950;11.762;2023-08-17T15:00:09;98503.88;;;25.00;100.00
17505;BME280;8870;50.950;11.762;2023-08-17T15:05:38;98553.25;;;24.84;100.00
17505;BME280;8870;50.950;11.762;2023-08-17T15:11:09;98526.50;;;24.68;100.00
17505;BME280;8870;50.950;11.762;2023-08-17T15:16:27;98550.06;;;24.41;100.00
17505;BME280;8870;50.950;11.762;2023-08-17T15:22:02;98547.91;;;24.14;100.00
17505;BME280;8870;50.950;11.762;2023-08-17T15:27:23;98564.16;;;23.87;100.00
17505;BME280;8870;50.950;11.762;2023-08-17T15:32:54;98567.19;;;23.74;100.00
17505;BME280;8870;50.950;11.762;2023-08-17T15:38:27;98541.03;;;23.59;100.00
17505;BME280;8870;50.950;11.762;2023-08-17T15:43:45;98552.81;;;23.43;100.00
17505;BME280;8870;50.950;11.762;2023-08-17T15:49:16;98584.34;;;22.81;100.00
17505;BME280;8870;50.950;11.762;2023-08-17T15:54:37;98589.25;;;22.36;100.00
17505;BME280;8870;50.950;11.762;2023-08-17T16:00:09;98551.97;;;22.16;100.00
17505;BME280;8870;50.950;11.762;2023-08-17T16:05:28;98552.19;;;21.84;100.00
17505;BME280;8870;50.950;11.762;2023-08-17T16:11:01;98609.50;;;21.55;100.00
17505;BME280;8870;50.950;11.762;2023-08-17T16:16:20;98654.91;;;21.45;100.00
17505;BME280;8870;50.950;11.762;2023-08-17T16:21:51;98640.53;;;21.31;100.00
17505;BME280;8870;50.950;11.762;2023-08-17T16:27:12;98630.69;;;21.23;100.00
17505;BME280;8870;50.950;11.762;2023-08-17T16:32:43;98666.66;;;21.08;100.00
17505;BME280;8870;50.950;11.762;2023-08-17T16:38:01;98685.22;;;21.06;100.00
17505;BME280;8870;50.950;11.762;2023-08-17T16:43:35;98696.16;;;21.06;100.00
17505;BME280;8870;50.950;11.762;2023-08-17T16:48:53;98698.13;;;20.99;100.00
17505;BME280;8870;50.950;11.762;2023-08-17T16:54:24;98694.88;;;20.83;100.00
17505;BME280;8870;50.950;11.762;2023-08-17T16:59:45;98704.75;;;20.84;100.00
17505;BME280;8870;50.950;11.762;2023-08-17T17:05:19;98722.88;;;20.85;100.00
17505;BME280;8870;50.950;11.762;2023-08-17T17:10:50;98753.16;;;20.90;100.00
17505;BME280;8870;50.950;11.762;2023-08-17T17:16:11;98743.25;;;20.89;100.00
17505;BME280;8870;50.950;11.762;2023-08-17T17:21:43;98735.28;;;20.88;100.00
17505;BME280;8870;50.950;11.762;2023-08-17T17:27:01;98724.09;;;20.89;100.00
17505;BME280;8870;50.950;11.762;2023-08-17T17:32:36;98742.19;;;20.90;100.00
17505;BME280;8870;50.950;11.762;2023-08-17T17:37:54;98769.44;;;20.85;100.00
17505;BME280;8870;50.950;11.762;2023-08-17T17:43:25;98814.34;;;20.64;100.00
17505;BME280;8870;50.950;11.762;2023-08-17T17:48:46;98832.56;;;20.31;100.00
17505;BME280;8870;50.950;11.762;2023-08-17T17:54:17;98843.53;;;20.18;100.00
17505;BME280;8870;50.950;11.762;2023-08-17T17:59:35;98880.59;;;20.14;100.00
17505;BME280;8870;50.950;11.762;2023-08-17T18:05:10;98903.13;;;20.16;100.00
17505;BME280;8870;50.950;11.762;2023-08-17T18:10:28;98892.78;;;20.18;100.00
17505;BME280;8870;50.950;11.762;2023-08-17T18:15:59;98892.78;;;20.25;100.00
17505;BME280;8870;50.950;11.762;2023-08-17T18:21:20;98910.03;;;20.32;100.00
17505;BME280;8870;50.950;11.762;2023-08-17T18:26:53;98895.72;;;20.37;100.00
17505;BME280;8870;50.950;11.762;2023-08-17T18:32:12;98883.72;;;20.38;100.00
17505;BME280;8870;50.950;11.762;2023-08-17T18:37:46;98879.28;;;20.37;100.00
17505;BME280;8870;50.950;11.762;2023-08-17T18:43:04;98878.25;;;20.38;100.00
17505;BME280;8870;50.950;11.762;2023-08-17T18:48:35;98887.28;;;20.38;100.00
17505;BME280;8870;50.950;11.762;2023-08-17T18:53:56;98882.44;;;20.40;100.00
17505;BME280;8870;50.950;11.762;2023-08-17T18:59:27;98884.34;;;20.40;100.00
17505;BME280;8870;50.950;11.762;2023-08-17T19:04:52;98890.03;;;20.38;100.00
17505;BME280;8870;50.950;11.762;2023-08-17T19:10:27;98883.94;;;20.29;100.00
17505;BME280;8870;50.950;11.762;2023-08-17T19:15:45;98903.94;;;20.23;100.00
17505;BME280;8870;50.950;11.762;2023-08-17T19:21:16;98929.22;;;20.12;100.00
17505;BME280;8870;50.950;11.762;2023-08-17T19:26:37;98942.47;;;20.08;100.00
17505;BME280;8870;50.950;11.762;2023-08-17T19:32:09;98940.78;;;20.07;100.00
17505;BME280;8870;50.950;11.762;2023-08-17T19:37:27;98948.13;;;20.07;100.00
17505;BME280;8870;50.950;11.762;2023-08-17T19:43:01;98956.34;;;20.07;100.00
17505;BME280;8870;50.950;11.762;2023-08-17T19:48:19;98959.50;;;20.10;100.00
17505;BME280;8870;50.950;11.762;2023-08-17T19:53:51;98954.47;;;20.07;100.00
17505;BME280;8870;50.950;11.762;2023-08-17T19:59:12;98948.13;;;20.07;100.00
17505;BME280;8870;50.950;11.762;2023-08-17T20:04:44;98942.06;;;20.05;100.00
17505;BME280;8870;50.950;11.762;2023-08-17T20:10:15;98928.16;;;19.99;100.00
17505;BME280;8870;50.950;11.762;2023-08-17T20:15:36;98931.94;;;19.98;100.00
17505;BME280;8870;50.950;11.762;2023-08-17T20:21:08;98929.19;;;19.98;100.00
17505;BME280;8870;50.950;11.762;2023-08-17T20:26:26;98922.03;;;19.97;100.00
17505;BME280;8870;50.950;11.762;2023-08-17T20:32:00;98916.81;;;19.96;100.00
17505;BME280;8870;50.950;11.762;2023-08-17T20:37:19;98919.72;;;19.94;100.00
17505;BME280;8870;50.950;11.762;2023-08-17T20:42:50;98921.84;;;19.92;100.00
17505;BME280;8870;50.950;11.762;2023-08-17T20:48:11;98910.47;;;19.89;100.00
17505;BME280;8870;50.950;11.762;2023-08-17T20:53:42;98914.47;;;19.86;100.00
17505;BME280;8870;50.950;11.762;2023-08-17T20:59:00;98908.34;;;19.84;100.00
17505;BME280;8870;50.950;11.762;2023-08-17T21:04:34;98906.66;;;19.83;100.00
17505;BME280;8870;50.950;11.762;2023-08-17T21:09:52;98905.19;;;19.80;100.00
17505;BME280;8870;50.950;11.762;2023-08-17T21:15:23;98905.59;;;19.77;100.00
17505;BME280;8870;50.950;11.762;2023-08-17T21:20:44;98927.69;;;19.76;100.00
17505;BME280;8870;50.950;11.762;2023-08-17T21:26:15;98941.75;;;19.73;100.00
17505;BME280;8870;50.950;11.762;2023-08-17T21:31:35;98941.97;;;19.71;100.00
17505;BME280;8870;50.950;11.762;2023-08-17T21:37:23;98942.41;;;19.68;100.00
17505;BME280;8870;50.950;11.762;2023-08-17T21:42:41;98943.66;;;19.65;100.00
17505;BME280;8870;50.950;11.762;2023-08-17T21:48:12;98951.22;;;19.63;100.00
17505;BME280;8870;50.950;11.762;2023-08-17T21:53:33;98952.66;;;19.59;100.00
17505;BME280;8870;50.950;11.762;2023-08-17T21:59:04;98964.03;;;19.56;100.00
17505;BME280;8870;50.950;11.762;2023-08-17T22:04:22;98964.22;;;19.54;100.00
17505;BME280;8870;50.950;11.762;2023-08-17T22:09:57;98959.19;;;19.51;100.00
17505;BME280;8870;50.950;11.762;2023-08-17T22:15:16;98965.25;;;19.47;100.00
17505;BME280;8870;50.950;11.762;2023-08-17T22:20:47;98971.78;;;19.39;100.00
17505;BME280;8870;50.950;11.762;2023-08-17T22:26:09;98985.84;;;19.36;100.00
17505;BME280;8870;50.950;11.762;2023-08-17T22:31:40;98958.91;;;19.33;100.00
17505;BME280;8870;50.950;11.762;2023-08-17T22:36:58;98971.94;;;19.31;100.00
17505;BME280;8870;50.950;11.762;2023-08-17T22:42:32;98959.53;;;19.28;100.00
17505;BME280;8870;50.950;11.762;2023-08-17T22:47:50;98953.25;;;19.28;100.00
17505;BME280;8870;50.950;11.762;2023-08-17T22:53:21;98950.69;;;19.26;100.00
17505;BME280;8870;50.950;11.762;2023-08-17T22:58:42;98955.97;;;19.28;100.00
17505;BME280;8870;50.950;11.762;2023-08-17T23:04:13;98946.91;;;19.27;100.00
17505;BME280;8870;50.950;11.762;2023-08-17T23:09:36;98945.22;;;19.26;100.00
17505;BME280;8870;50.950;11.762;2023-08-17T23:15:10;98943.53;;;19.25;100.00
17505;BME280;8870;50.950;11.762;2023-08-17T23:20:28;98930.94;;;19.24;100.00
17505;BME280;8870;50.950;11.762;2023-08-17T23:26:07;98925.69;;;19.22;100.00
17505;BME280;8870;50.950;11.762;2023-08-17T23:31:38;98924.22;;;19.20;100.00
17505;BME280;8870;50.950;11.762;2023-08-17T23:36:56;98939.78;;;19.26;100.00
17505;BME280;8870;50.950;11.762;2023-08-17T23:42:30;98936.19;;;19.19;100.00
17505;BME280;8870;50.950;11.762;2023-08-17T23:47:48;98929.84;;;19.12;100.00
17505;BME280;8870;50.950;11.762;2023-08-17T23:53:19;98917.41;;;19.02;100.00
17505;BME280;8870;50.950;11.762;2023-08-17T23:58:40;98912.72;;;18.89;100.00
